sensor_id;sensor_type;location;lat;lon;timestamp;P1;durP1;ratioP1;P2;durP2;ratioP2
1567;SDS011;777;47.156;8.326;2023-02-13T00:01:54;62.35;;;43.47;;
1567;SDS011;777;47.156;8.326;2023-02-13T00:04:21;59.97;;;42.45;;
1567;SDS011;777;47.156;8.326;2023-02-13T00:06:48;61.22;;;42.40;;
1567;SDS011;777;47.156;8.326;2023-02-13T00:09:16;64.32;;;43.58;;
1567;SDS011;777;47.156;8.326;2023-02-13T00:11:43;58.92;;;42.13;;
1567;SDS011;777;47.156;8.326;2023-02-13T00:14:10;59.05;;;42.28;;
1567;SDS011;777;47.156;8.326;2023-02-13T00:16:37;60.60;;;41.22;;
1567;SDS011;777;47.156;8.326;2023-02-13T00:19:04;56.22;;;39.83;;
1567;SDS011;777;47.156;8.326;2023-02-13T00:21:32;53.03;;;38.47;;
1567;SDS011;777;47.156;8.326;2023-02-13T00:23:59;55.33;;;37.50;;
1567;SDS011;777;47.156;8.326;2023-02-13T00:26:27;57.63;;;40.13;;
1567;SDS011;777;47.156;8.326;2023-02-13T00:28:55;55.28;;;39.03;;
1567;SDS011;777;47.156;8.326;2023-02-13T00:31:23;56.47;;;40.80;;
1567;SDS011;777;47.156;8.326;2023-02-13T00:33:50;58.28;;;41.47;;
1567;SDS011;777;47.156;8.326;2023-02-13T00:36:18;58.55;;;42.33;;
1567;SDS011;777;47.156;8.326;2023-02-13T00:38:47;63.28;;;41.45;;
1567;SDS011;777;47.156;8.326;2023-02-13T00:41:14;57.78;;;41.13;;
1567;SDS011;777;47.156;8.326;2023-02-13T00:43:43;56.92;;;42.00;;
1567;SDS011;777;47.156;8.326;2023-02-13T00:46:11;56.40;;;41.35;;
1567;SDS011;777;47.156;8.326;2023-02-13T00:48:38;56.35;;;40.42;;
1567;SDS011;777;47.156;8.326;2023-02-13T00:51:06;58.88;;;41.72;;
1567;SDS011;777;47.156;8.326;2023-02-13T00:53:34;59.80;;;41.60;;
1567;SDS011;777;47.156;8.326;2023-02-13T00:56:02;56.17;;;40.55;;
1567;SDS011;777;47.156;8.326;2023-02-13T00:58:30;54.75;;;38.15;;
1567;SDS011;777;47.156;8.326;2023-02-13T01:00:59;48.33;;;35.33;;
1567;SDS011;777;47.156;8.326;2023-02-13T01:03:26;52.58;;;38.22;;
1567;SDS011;777;47.156;8.326;2023-02-13T01:05:54;49.92;;;36.22;;
1567;SDS011;777;47.156;8.326;2023-02-13T01:08:21;47.03;;;35.20;;
1567;SDS011;777;47.156;8.326;2023-02-13T01:10:49;48.75;;;35.42;;
1567;SDS011;777;47.156;8.326;2023-02-13T01:13:17;44.92;;;34.05;;
1567;SDS011;777;47.156;8.326;2023-02-13T01:15:45;47.67;;;36.25;;
1567;SDS011;777;47.156;8.326;2023-02-13T01:18:15;47.10;;;34.75;;
1567;SDS011;777;47.156;8.326;2023-02-13T01:20:45;46.72;;;34.90;;
1567;SDS011;777;47.156;8.326;2023-02-13T01:23:21;42.72;;;33.20;;
1567;SDS011;777;47.156;8.326;2023-02-13T01:25:50;44.72;;;34.17;;
1567;SDS011;777;47.156;8.326;2023-02-13T01:28:17;46.65;;;34.60;;
1567;SDS011;777;47.156;8.326;2023-02-13T01:30:44;47.15;;;35.10;;
1567;SDS011;777;47.156;8.326;2023-02-13T01:33:20;49.22;;;36.25;;
1567;SDS011;777;47.156;8.326;2023-02-13T01:35:48;45.03;;;33.78;;
1567;SDS011;777;47.156;8.326;2023-02-13T01:38:15;49.42;;;35.65;;
1567;SDS011;777;47.156;8.326;2023-02-13T01:40:43;47.63;;;36.85;;
1567;SDS011;777;47.156;8.326;2023-02-13T01:43:11;49.55;;;35.30;;
1567;SDS011;777;47.156;8.326;2023-02-13T01:45:38;49.50;;;35.25;;
1567;SDS011;777;47.156;8.326;2023-02-13T01:48:06;49.40;;;35.13;;
1567;SDS011;777;47.156;8.326;2023-02-13T01:50:41;50.63;;;35.85;;
1567;SDS011;777;47.156;8.326;2023-02-13T01:53:13;44.28;;;33.50;;
1567;SDS011;777;47.156;8.326;2023-02-13T01:55:45;41.72;;;32.50;;
1567;SDS011;777;47.156;8.326;2023-02-13T02:00:48;41.88;;;32.42;;
1567;SDS011;777;47.156;8.326;2023-02-13T02:03:16;43.83;;;32.80;;
1567;SDS011;777;47.156;8.326;2023-02-13T02:05:50;42.85;;;32.13;;
1567;SDS011;777;47.156;8.326;2023-02-13T02:08:19;46.97;;;34.33;;
1567;SDS011;777;47.156;8.326;2023-02-13T02:10:51;45.28;;;33.78;;
1567;SDS011;777;47.156;8.326;2023-02-13T02:13:20;44.70;;;31.83;;
1567;SDS011;777;47.156;8.326;2023-02-13T02:15:49;43.95;;;32.92;;
1567;SDS011;777;47.156;8.326;2023-02-13T02:18:16;44.58;;;32.97;;
1567;SDS011;777;47.156;8.326;2023-02-13T02:23:46;45.28;;;32.70;;
1567;SDS011;777;47.156;8.326;2023-02-13T02:30:12;45.35;;;33.20;;
1567;SDS011;777;47.156;8.326;2023-02-13T02:33:05;44.38;;;33.08;;
1567;SDS011;777;47.156;8.326;2023-02-13T02:35:42;46.08;;;34.58;;
1567;SDS011;777;47.156;8.326;2023-02-13T02:38:20;49.30;;;35.78;;
1567;SDS011;777;47.156;8.326;2023-02-13T02:41:01;49.90;;;35.47;;
1567;SDS011;777;47.156;8.326;2023-02-13T02:43:40;50.88;;;36.70;;
1567;SDS011;777;47.156;8.326;2023-02-13T02:46:17;53.28;;;37.22;;
1567;SDS011;777;47.156;8.326;2023-02-13T02:48:55;48.95;;;36.95;;
1567;SDS011;777;47.156;8.326;2023-02-13T02:51:48;50.97;;;35.95;;
1567;SDS011;777;47.156;8.326;2023-02-13T02:54:24;49.78;;;35.83;;
1567;SDS011;777;47.156;8.326;2023-02-13T02:57:13;52.92;;;36.35;;
1567;SDS011;777;47.156;8.326;2023-02-13T02:59:52;55.45;;;39.72;;
1567;SDS011;777;47.156;8.326;2023-02-13T03:02:38;49.70;;;37.13;;
1567;SDS011;777;47.156;8.326;2023-02-13T03:05:24;49.22;;;36.70;;
1567;SDS011;777;47.156;8.326;2023-02-13T03:08:12;51.72;;;37.90;;
1567;SDS011;777;47.156;8.326;2023-02-13T03:11:00;51.20;;;36.97;;
1567;SDS011;777;47.156;8.326;2023-02-13T03:13:42;51.50;;;37.15;;
1567;SDS011;777;47.156;8.326;2023-02-13T03:16:14;52.38;;;36.65;;
1567;SDS011;777;47.156;8.326;2023-02-13T03:19:02;48.42;;;35.90;;
1567;SDS011;777;47.156;8.326;2023-02-13T03:21:48;50.28;;;36.97;;
1567;SDS011;777;47.156;8.326;2023-02-13T03:24:42;50.25;;;36.03;;
1567;SDS011;777;47.156;8.326;2023-02-13T03:27:17;50.58;;;35.72;;
1567;SDS011;777;47.156;8.326;2023-02-13T03:30:09;51.75;;;37.40;;
1567;SDS011;777;47.156;8.326;2023-02-13T03:32:44;49.20;;;34.50;;
1567;SDS011;777;47.156;8.326;2023-02-13T03:35:21;46.92;;;35.75;;
1567;SDS011;777;47.156;8.326;2023-02-13T03:38:15;47.80;;;35.65;;
1567;SDS011;777;47.156;8.326;2023-02-13T03:40:48;51.05;;;36.40;;
1567;SDS011;777;47.156;8.326;2023-02-13T03:43:38;49.80;;;37.60;;
1567;SDS011;777;47.156;8.326;2023-02-13T03:46:12;52.55;;;38.15;;
1567;SDS011;777;47.156;8.326;2023-02-13T03:48:40;55.00;;;39.38;;
1567;SDS011;777;47.156;8.326;2023-02-13T03:51:27;51.88;;;37.80;;
1567;SDS011;777;47.156;8.326;2023-02-13T03:54:00;50.78;;;36.58;;
1567;SDS011;777;47.156;8.326;2023-02-13T03:56:30;51.47;;;37.28;;
1567;SDS011;777;47.156;8.326;2023-02-13T03:59:17;48.08;;;35.65;;
1567;SDS011;777;47.156;8.326;2023-02-13T04:01:50;45.63;;;33.78;;
1567;SDS011;777;47.156;8.326;2023-02-13T04:04:25;47.15;;;34.95;;
1567;SDS011;777;47.156;8.326;2023-02-13T04:06:59;48.20;;;35.50;;
1567;SDS011;777;47.156;8.326;2023-02-13T04:09:30;48.50;;;35.58;;
1567;SDS011;777;47.156;8.326;2023-02-13T04:12:04;53.10;;;38.63;;
1567;SDS011;777;47.156;8.326;2023-02-13T04:14:38;53.30;;;38.58;;
1567;SDS011;777;47.156;8.326;2023-02-13T04:17:12;47.25;;;36.13;;
1567;SDS011;777;47.156;8.326;2023-02-13T04:19:43;54.17;;;40.13;;
1567;SDS011;777;47.156;8.326;2023-02-13T04:22:10;50.40;;;39.10;;
1567;SDS011;777;47.156;8.326;2023-02-13T04:24:39;54.42;;;38.92;;
1567;SDS011;777;47.156;8.326;2023-02-13T04:27:06;52.88;;;40.15;;
1567;SDS011;777;47.156;8.326;2023-02-13T04:29:33;62.80;;;46.00;;
1567;SDS011;777;47.156;8.326;2023-02-13T04:32:00;66.28;;;46.28;;
1567;SDS011;777;47.156;8.326;2023-02-13T04:34:27;57.08;;;42.30;;
1567;SDS011;777;47.156;8.326;2023-02-13T04:36:54;53.30;;;38.75;;
1567;SDS011;777;47.156;8.326;2023-02-13T04:39:21;55.78;;;39.08;;
1567;SDS011;777;47.156;8.326;2023-02-13T04:41:49;52.60;;;39.00;;
1567;SDS011;777;47.156;8.326;2023-02-13T04:44:16;53.10;;;38.25;;
1567;SDS011;777;47.156;8.326;2023-02-13T04:46:43;56.55;;;40.33;;
1567;SDS011;777;47.156;8.326;2023-02-13T04:49:10;50.70;;;38.35;;
1567;SDS011;777;47.156;8.326;2023-02-13T04:51:37;53.97;;;39.45;;
1567;SDS011;777;47.156;8.326;2023-02-13T04:54:04;52.50;;;39.17;;
1567;SDS011;777;47.156;8.326;2023-02-13T04:56:31;54.25;;;38.95;;
1567;SDS011;777;47.156;8.326;2023-02-13T04:59:00;53.72;;;39.08;;
1567;SDS011;777;47.156;8.326;2023-02-13T05:01:27;55.03;;;38.33;;
1567;SDS011;777;47.156;8.326;2023-02-13T05:03:54;54.85;;;41.10;;
1567;SDS011;777;47.156;8.326;2023-02-13T05:06:21;54.38;;;40.55;;
1567;SDS011;777;47.156;8.326;2023-02-13T05:08:48;57.10;;;41.30;;
1567;SDS011;777;47.156;8.326;2023-02-13T05:11:15;58.55;;;42.20;;
1567;SDS011;777;47.156;8.326;2023-02-13T05:13:41;59.05;;;42.53;;
1567;SDS011;777;47.156;8.326;2023-02-13T05:16:10;63.83;;;44.03;;
1567;SDS011;777;47.156;8.326;2023-02-13T05:18:37;63.38;;;44.45;;
1567;SDS011;777;47.156;8.326;2023-02-13T05:21:04;59.50;;;43.60;;
1567;SDS011;777;47.156;8.326;2023-02-13T05:23:49;64.85;;;45.00;;
1567;SDS011;777;47.156;8.326;2023-02-13T05:26:16;64.53;;;46.15;;
1567;SDS011;777;47.156;8.326;2023-02-13T05:28:43;61.80;;;44.92;;
1567;SDS011;777;47.156;8.326;2023-02-13T05:31:28;60.17;;;44.88;;
1567;SDS011;777;47.156;8.326;2023-02-13T05:33:55;58.53;;;43.92;;
1567;SDS011;777;47.156;8.326;2023-02-13T05:36:22;61.60;;;45.50;;
1567;SDS011;777;47.156;8.326;2023-02-13T05:38:49;63.05;;;43.95;;
1567;SDS011;777;47.156;8.326;2023-02-13T05:41:16;58.88;;;44.05;;
1567;SDS011;777;47.156;8.326;2023-02-13T05:43:43;60.35;;;43.03;;
1567;SDS011;777;47.156;8.326;2023-02-13T05:46:10;56.80;;;43.40;;
1567;SDS011;777;47.156;8.326;2023-02-13T05:48:39;57.95;;;41.90;;
1567;SDS011;777;47.156;8.326;2023-02-13T05:51:06;59.83;;;44.10;;
1567;SDS011;777;47.156;8.326;2023-02-13T05:53:33;60.42;;;44.50;;
1567;SDS011;777;47.156;8.326;2023-02-13T05:56:01;62.20;;;45.05;;
1567;SDS011;777;47.156;8.326;2023-02-13T05:58:28;60.13;;;44.92;;
1567;SDS011;777;47.156;8.326;2023-02-13T06:00:55;64.20;;;44.92;;
1567;SDS011;777;47.156;8.326;2023-02-13T06:03:23;69.03;;;48.53;;
1567;SDS011;777;47.156;8.326;2023-02-13T06:05:52;67.32;;;46.97;;
1567;SDS011;777;47.156;8.326;2023-02-13T06:08:20;68.57;;;46.83;;
1567;SDS011;777;47.156;8.326;2023-02-13T06:10:47;63.97;;;45.58;;
1567;SDS011;777;47.156;8.326;2023-02-13T06:13:15;64.95;;;45.42;;
1567;SDS011;777;47.156;8.326;2023-02-13T06:15:43;61.97;;;44.40;;
1567;SDS011;777;47.156;8.326;2023-02-13T06:18:10;60.80;;;43.67;;
1567;SDS011;777;47.156;8.326;2023-02-13T06:20:37;62.42;;;43.60;;
1567;SDS011;777;47.156;8.326;2023-02-13T06:23:05;83.20;;;53.60;;
1567;SDS011;777;47.156;8.326;2023-02-13T06:25:33;83.40;;;55.50;;
1567;SDS011;777;47.156;8.326;2023-02-13T06:28:00;81.75;;;55.95;;
1567;SDS011;777;47.156;8.326;2023-02-13T06:30:28;83.10;;;56.33;;
1567;SDS011;777;47.156;8.326;2023-02-13T06:32:55;84.88;;;57.30;;
1567;SDS011;777;47.156;8.326;2023-02-13T06:35:22;89.38;;;57.38;;
1567;SDS011;777;47.156;8.326;2023-02-13T06:37:49;91.10;;;57.22;;
1567;SDS011;777;47.156;8.326;2023-02-13T06:40:18;80.72;;;55.17;;
1567;SDS011;777;47.156;8.326;2023-02-13T06:42:45;78.68;;;52.13;;
1567;SDS011;777;47.156;8.326;2023-02-13T06:45:12;85.15;;;56.17;;
1567;SDS011;777;47.156;8.326;2023-02-13T06:47:40;92.72;;;59.22;;
1567;SDS011;777;47.156;8.326;2023-02-13T06:50:08;83.05;;;54.78;;
1567;SDS011;777;47.156;8.326;2023-02-13T06:52:36;88.00;;;57.45;;
1567;SDS011;777;47.156;8.326;2023-02-13T06:55:04;84.18;;;55.47;;
1567;SDS011;777;47.156;8.326;2023-02-13T06:57:32;81.28;;;55.25;;
1567;SDS011;777;47.156;8.326;2023-02-13T06:59:59;83.22;;;54.28;;
1567;SDS011;777;47.156;8.326;2023-02-13T07:02:30;90.15;;;58.38;;
1567;SDS011;777;47.156;8.326;2023-02-13T07:04:57;95.47;;;59.67;;
1567;SDS011;777;47.156;8.326;2023-02-13T07:07:24;91.10;;;58.83;;
1567;SDS011;777;47.156;8.326;2023-02-13T07:09:51;98.38;;;62.03;;
1567;SDS011;777;47.156;8.326;2023-02-13T07:12:18;87.40;;;59.33;;
1567;SDS011;777;47.156;8.326;2023-02-13T07:14:46;92.72;;;59.92;;
1567;SDS011;777;47.156;8.326;2023-02-13T07:17:13;86.38;;;57.10;;
1567;SDS011;777;47.156;8.326;2023-02-13T07:19:40;90.40;;;58.47;;
1567;SDS011;777;47.156;8.326;2023-02-13T07:22:07;94.88;;;59.00;;
1567;SDS011;777;47.156;8.326;2023-02-13T07:24:34;96.85;;;60.33;;
1567;SDS011;777;47.156;8.326;2023-02-13T07:27:02;91.90;;;59.03;;
1567;SDS011;777;47.156;8.326;2023-02-13T07:29:29;87.43;;;57.25;;
1567;SDS011;777;47.156;8.326;2023-02-13T07:31:58;84.60;;;57.83;;
1567;SDS011;777;47.156;8.326;2023-02-13T07:34:25;88.95;;;58.25;;
1567;SDS011;777;47.156;8.326;2023-02-13T07:36:52;92.38;;;57.05;;
1567;SDS011;777;47.156;8.326;2023-02-13T07:39:19;93.13;;;58.40;;
1567;SDS011;777;47.156;8.326;2023-02-13T07:41:46;92.50;;;58.63;;
1567;SDS011;777;47.156;8.326;2023-02-13T07:44:14;93.00;;;57.65;;
1567;SDS011;777;47.156;8.326;2023-02-13T07:46:41;88.53;;;58.30;;
1567;SDS011;777;47.156;8.326;2023-02-13T07:49:10;98.57;;;58.00;;
1567;SDS011;777;47.156;8.326;2023-02-13T07:51:37;85.45;;;56.22;;
1567;SDS011;777;47.156;8.326;2023-02-13T07:54:04;87.60;;;54.83;;
1567;SDS011;777;47.156;8.326;2023-02-13T07:56:31;92.00;;;56.47;;
1567;SDS011;777;47.156;8.326;2023-02-13T07:58:58;108.90;;;58.70;;
1567;SDS011;777;47.156;8.326;2023-02-13T08:01:25;84.50;;;54.88;;
1567;SDS011;777;47.156;8.326;2023-02-13T08:03:52;175.88;;;56.35;;
1567;SDS011;777;47.156;8.326;2023-02-13T08:06:20;95.32;;;55.95;;
1567;SDS011;777;47.156;8.326;2023-02-13T08:08:47;84.05;;;54.38;;
1567;SDS011;777;47.156;8.326;2023-02-13T08:11:34;84.57;;;55.50;;
1567;SDS011;777;47.156;8.326;2023-02-13T08:14:19;85.03;;;53.53;;
1567;SDS011;777;47.156;8.326;2023-02-13T08:16:46;83.00;;;54.08;;
1567;SDS011;777;47.156;8.326;2023-02-13T08:19:13;78.68;;;51.50;;
1567;SDS011;777;47.156;8.326;2023-02-13T08:21:41;79.97;;;53.88;;
1567;SDS011;777;47.156;8.326;2023-02-13T08:24:08;79.43;;;51.30;;
1567;SDS011;777;47.156;8.326;2023-02-13T08:26:35;76.38;;;50.50;;
1567;SDS011;777;47.156;8.326;2023-02-13T08:29:03;76.72;;;51.13;;
1567;SDS011;777;47.156;8.326;2023-02-13T08:31:30;77.40;;;51.78;;
1567;SDS011;777;47.156;8.326;2023-02-13T08:33:57;75.88;;;51.78;;
1567;SDS011;777;47.156;8.326;2023-02-13T08:36:24;103.53;;;51.13;;
1567;SDS011;777;47.156;8.326;2023-02-13T08:38:52;84.53;;;50.33;;
1567;SDS011;777;47.156;8.326;2023-02-13T08:41:19;69.90;;;48.05;;
1567;SDS011;777;47.156;8.326;2023-02-13T08:43:47;84.38;;;52.45;;
1567;SDS011;777;47.156;8.326;2023-02-13T08:46:14;78.03;;;52.03;;
1567;SDS011;777;47.156;8.326;2023-02-13T08:48:41;79.07;;;51.28;;
1567;SDS011;777;47.156;8.326;2023-02-13T08:51:09;74.32;;;49.60;;
1567;SDS011;777;47.156;8.326;2023-02-13T08:53:37;75.30;;;49.03;;
1567;SDS011;777;47.156;8.326;2023-02-13T08:56:13;78.10;;;49.42;;
1567;SDS011;777;47.156;8.326;2023-02-13T08:58:41;74.50;;;47.60;;
1567;SDS011;777;47.156;8.326;2023-02-13T09:01:08;75.97;;;47.17;;
1567;SDS011;777;47.156;8.326;2023-02-13T09:03:35;82.07;;;47.80;;
1567;SDS011;777;47.156;8.326;2023-02-13T09:06:02;85.55;;;49.50;;
1567;SDS011;777;47.156;8.326;2023-02-13T09:08:30;78.38;;;48.92;;
1567;SDS011;777;47.156;8.326;2023-02-13T09:10:58;77.70;;;49.00;;
1567;SDS011;777;47.156;8.326;2023-02-13T09:13:28;72.35;;;47.80;;
1567;SDS011;777;47.156;8.326;2023-02-13T09:15:58;70.15;;;47.40;;
1567;SDS011;777;47.156;8.326;2023-02-13T09:18:25;68.03;;;45.63;;
1567;SDS011;777;47.156;8.326;2023-02-13T09:20:56;70.25;;;46.80;;
1567;SDS011;777;47.156;8.326;2023-02-13T09:23:25;66.53;;;44.45;;
1567;SDS011;777;47.156;8.326;2023-02-13T09:25:52;63.30;;;43.88;;
1567;SDS011;777;47.156;8.326;2023-02-13T09:28:19;63.67;;;43.53;;
1567;SDS011;777;47.156;8.326;2023-02-13T09:30:47;70.93;;;45.47;;
1567;SDS011;777;47.156;8.326;2023-02-13T09:33:15;70.28;;;47.30;;
1567;SDS011;777;47.156;8.326;2023-02-13T09:35:42;66.15;;;43.20;;
1567;SDS011;777;47.156;8.326;2023-02-13T09:38:09;65.13;;;43.72;;
1567;SDS011;777;47.156;8.326;2023-02-13T09:40:39;67.25;;;43.88;;
1567;SDS011;777;47.156;8.326;2023-02-13T09:43:10;65.72;;;43.88;;
1567;SDS011;777;47.156;8.326;2023-02-13T09:45:41;66.65;;;44.17;;
1567;SDS011;777;47.156;8.326;2023-02-13T09:48:14;72.10;;;44.67;;
1567;SDS011;777;47.156;8.326;2023-02-13T09:50:54;67.95;;;46.28;;
1567;SDS011;777;47.156;8.326;2023-02-13T09:53:22;73.40;;;48.28;;
1567;SDS011;777;47.156;8.326;2023-02-13T09:55:54;75.68;;;47.63;;
1567;SDS011;777;47.156;8.326;2023-02-13T09:58:35;71.22;;;46.90;;
1567;SDS011;777;47.156;8.326;2023-02-13T10:01:14;72.07;;;47.85;;
1567;SDS011;777;47.156;8.326;2023-02-13T10:03:48;69.63;;;46.20;;
1567;SDS011;777;47.156;8.326;2023-02-13T10:06:23;71.32;;;45.97;;
1567;SDS011;777;47.156;8.326;2023-02-13T10:08:58;72.60;;;45.75;;
1567;SDS011;777;47.156;8.326;2023-02-13T10:11:40;68.60;;;45.65;;
1567;SDS011;777;47.156;8.326;2023-02-13T10:14:41;73.65;;;46.05;;
1567;SDS011;777;47.156;8.326;2023-02-13T10:17:13;74.45;;;47.78;;
1567;SDS011;777;47.156;8.326;2023-02-13T10:19:47;72.35;;;45.28;;
1567;SDS011;777;47.156;8.326;2023-02-13T10:22:20;68.70;;;44.70;;
1567;SDS011;777;47.156;8.326;2023-02-13T10:24:55;68.72;;;46.00;;
1567;SDS011;777;47.156;8.326;2023-02-13T10:27:29;63.88;;;42.38;;
1567;SDS011;777;47.156;8.326;2023-02-13T10:30:00;63.15;;;43.10;;
1567;SDS011;777;47.156;8.326;2023-02-13T10:32:34;65.13;;;43.97;;
1567;SDS011;777;47.156;8.326;2023-02-13T10:35:14;64.43;;;42.85;;
1567;SDS011;777;47.156;8.326;2023-02-13T10:37:46;78.32;;;46.85;;
1567;SDS011;777;47.156;8.326;2023-02-13T10:40:15;76.50;;;46.88;;
1567;SDS011;777;47.156;8.326;2023-02-13T10:42:44;69.90;;;47.00;;
1567;SDS011;777;47.156;8.326;2023-02-13T10:45:21;69.50;;;46.65;;
1567;SDS011;777;47.156;8.326;2023-02-13T10:48:02;68.65;;;45.15;;
1567;SDS011;777;47.156;8.326;2023-02-13T10:50:42;73.07;;;46.88;;
1567;SDS011;777;47.156;8.326;2023-02-13T10:55:50;68.63;;;46.30;;
1567;SDS011;777;47.156;8.326;2023-02-13T10:58:34;68.13;;;45.83;;
1567;SDS011;777;47.156;8.326;2023-02-13T11:01:08;72.35;;;45.80;;
1567;SDS011;777;47.156;8.326;2023-02-13T11:03:41;73.50;;;45.08;;
1567;SDS011;777;47.156;8.326;2023-02-13T11:06:13;68.97;;;44.70;;
1567;SDS011;777;47.156;8.326;2023-02-13T11:08:44;67.50;;;42.40;;
1567;SDS011;777;47.156;8.326;2023-02-13T11:11:29;64.18;;;42.42;;
1567;SDS011;777;47.156;8.326;2023-02-13T11:14:06;70.13;;;44.78;;
1567;SDS011;777;47.156;8.326;2023-02-13T11:16:48;70.20;;;45.08;;
1567;SDS011;777;47.156;8.326;2023-02-13T11:19:23;68.43;;;45.78;;
1567;SDS011;777;47.156;8.326;2023-02-13T11:21:56;73.68;;;45.42;;
1567;SDS011;777;47.156;8.326;2023-02-13T11:24:26;78.88;;;46.20;;
1567;SDS011;777;47.156;8.326;2023-02-13T11:26:57;73.88;;;46.05;;
1567;SDS011;777;47.156;8.326;2023-02-13T11:29:27;76.78;;;47.40;;
1567;SDS011;777;47.156;8.326;2023-02-13T11:32:04;74.32;;;46.38;;
1567;SDS011;777;47.156;8.326;2023-02-13T11:34:45;72.90;;;45.97;;
1567;SDS011;777;47.156;8.326;2023-02-13T11:37:23;70.78;;;44.78;;
1567;SDS011;777;47.156;8.326;2023-02-13T11:39:52;69.50;;;43.45;;
1567;SDS011;777;47.156;8.326;2023-02-13T11:42:25;68.78;;;43.60;;
1567;SDS011;777;47.156;8.326;2023-02-13T11:44:55;69.40;;;45.72;;
1567;SDS011;777;47.156;8.326;2023-02-13T11:47:38;67.13;;;45.38;;
1567;SDS011;777;47.156;8.326;2023-02-13T11:50:18;69.53;;;44.38;;
1567;SDS011;777;47.156;8.326;2023-02-13T11:52:53;62.42;;;41.70;;
1567;SDS011;777;47.156;8.326;2023-02-13T11:55:24;66.95;;;42.88;;
1567;SDS011;777;47.156;8.326;2023-02-13T11:57:57;63.20;;;42.33;;
1567;SDS011;777;47.156;8.326;2023-02-13T12:00:31;68.50;;;41.45;;
1567;SDS011;777;47.156;8.326;2023-02-13T12:03:02;63.67;;;40.47;;
1567;SDS011;777;47.156;8.326;2023-02-13T12:05:59;64.22;;;41.80;;
1567;SDS011;777;47.156;8.326;2023-02-13T12:08:30;65.68;;;43.53;;
1567;SDS011;777;47.156;8.326;2023-02-13T12:10:58;61.55;;;40.33;;
1567;SDS011;777;47.156;8.326;2023-02-13T12:13:29;63.70;;;42.05;;
1567;SDS011;777;47.156;8.326;2023-02-13T12:15:59;62.85;;;41.80;;
1567;SDS011;777;47.156;8.326;2023-02-13T12:18:30;64.20;;;40.33;;
1567;SDS011;777;47.156;8.326;2023-02-13T12:21:03;64.72;;;40.35;;
1567;SDS011;777;47.156;8.326;2023-02-13T12:23:41;61.90;;;40.40;;
1567;SDS011;777;47.156;8.326;2023-02-13T12:26:22;58.45;;;40.33;;
1567;SDS011;777;47.156;8.326;2023-02-13T12:29:09;57.70;;;39.20;;
1567;SDS011;777;47.156;8.326;2023-02-13T12:31:57;61.25;;;40.88;;
1567;SDS011;777;47.156;8.326;2023-02-13T12:37:23;59.90;;;39.80;;
1567;SDS011;777;47.156;8.326;2023-02-13T12:40:10;59.05;;;41.50;;
1567;SDS011;777;47.156;8.326;2023-02-13T12:42:53;64.85;;;43.28;;
1567;SDS011;777;47.156;8.326;2023-02-13T12:45:35;62.92;;;42.25;;
1567;SDS011;777;47.156;8.326;2023-02-13T12:48:12;64.82;;;42.08;;
1567;SDS011;777;47.156;8.326;2023-02-13T12:50:55;65.18;;;43.28;;
1567;SDS011;777;47.156;8.326;2023-02-13T12:53:35;64.57;;;41.33;;
1567;SDS011;777;47.156;8.326;2023-02-13T12:56:36;66.53;;;41.63;;
1567;SDS011;777;47.156;8.326;2023-02-13T12:59:22;66.38;;;42.75;;
1567;SDS011;777;47.156;8.326;2023-02-13T13:04:55;66.53;;;42.88;;
1567;SDS011;777;47.156;8.326;2023-02-13T13:07:35;70.43;;;43.78;;
1567;SDS011;777;47.156;8.326;2023-02-13T13:10:17;62.50;;;43.08;;
1567;SDS011;777;47.156;8.326;2023-02-13T13:13:02;69.07;;;44.05;;
1567;SDS011;777;47.156;8.326;2023-02-13T13:15:39;65.93;;;43.13;;
1567;SDS011;777;47.156;8.326;2023-02-13T13:18:20;63.85;;;41.75;;
1567;SDS011;777;47.156;8.326;2023-02-13T13:21:00;59.88;;;39.78;;
1567;SDS011;777;47.156;8.326;2023-02-13T13:23:36;59.05;;;39.72;;
1567;SDS011;777;47.156;8.326;2023-02-13T13:26:12;62.60;;;40.80;;
1567;SDS011;777;47.156;8.326;2023-02-13T13:28:49;59.53;;;39.38;;
1567;SDS011;777;47.156;8.326;2023-02-13T13:31:19;62.45;;;40.65;;
1567;SDS011;777;47.156;8.326;2023-02-13T13:33:50;57.60;;;37.75;;
1567;SDS011;777;47.156;8.326;2023-02-13T13:36:20;58.97;;;37.92;;
1567;SDS011;777;47.156;8.326;2023-02-13T13:39:00;51.00;;;34.03;;
1567;SDS011;777;47.156;8.326;2023-02-13T13:41:34;54.88;;;36.17;;
1567;SDS011;777;47.156;8.326;2023-02-13T13:44:13;50.45;;;34.78;;
1567;SDS011;777;47.156;8.326;2023-02-13T13:46:53;44.40;;;32.53;;
1567;SDS011;777;47.156;8.326;2023-02-13T13:54:48;40.38;;;30.23;;
1567;SDS011;777;47.156;8.326;2023-02-13T13:57:16;40.30;;;31.10;;
1567;SDS011;777;47.156;8.326;2023-02-13T14:05:59;33.35;;;26.48;;
1567;SDS011;777;47.156;8.326;2023-02-13T14:11:31;32.10;;;26.85;;
1567;SDS011;777;47.156;8.326;2023-02-13T14:14:00;35.42;;;29.75;;
1567;SDS011;777;47.156;8.326;2023-02-13T14:16:48;34.42;;;27.75;;
1567;SDS011;777;47.156;8.326;2023-02-13T14:19:27;31.20;;;27.83;;
1567;SDS011;777;47.156;8.326;2023-02-13T14:25:01;30.70;;;26.55;;
1567;SDS011;777;47.156;8.326;2023-02-13T14:27:31;34.97;;;27.80;;
1567;SDS011;777;47.156;8.326;2023-02-13T14:30:01;29.48;;;25.73;;
1567;SDS011;777;47.156;8.326;2023-02-13T14:32:30;29.48;;;25.75;;
1567;SDS011;777;47.156;8.326;2023-02-13T14:35:02;31.70;;;26.00;;
1567;SDS011;777;47.156;8.326;2023-02-13T14:37:46;29.30;;;26.13;;
1567;SDS011;777;47.156;8.326;2023-02-13T14:43:20;32.13;;;26.92;;
1567;SDS011;777;47.156;8.326;2023-02-13T14:45:53;27.95;;;24.95;;
1567;SDS011;777;47.156;8.326;2023-02-13T14:48:24;30.88;;;26.30;;
1567;SDS011;777;47.156;8.326;2023-02-13T14:51:00;31.08;;;26.83;;
1567;SDS011;777;47.156;8.326;2023-02-13T14:53:29;29.30;;;25.98;;
1567;SDS011;777;47.156;8.326;2023-02-13T14:56:00;33.38;;;28.92;;
1567;SDS011;777;47.156;8.326;2023-02-13T14:58:32;32.10;;;27.40;;
1567;SDS011;777;47.156;8.326;2023-02-13T15:01:02;32.80;;;27.45;;
1567;SDS011;777;47.156;8.326;2023-02-13T15:03:34;29.48;;;26.00;;
1567;SDS011;777;47.156;8.326;2023-02-13T15:06:10;32.40;;;26.33;;
1567;SDS011;777;47.156;8.326;2023-02-13T15:08:40;28.45;;;25.35;;
1567;SDS011;777;47.156;8.326;2023-02-13T15:11:10;29.70;;;26.35;;
1567;SDS011;777;47.156;8.326;2023-02-13T15:14:13;34.60;;;29.25;;
1567;SDS011;777;47.156;8.326;2023-02-13T15:16:41;31.27;;;26.30;;
1567;SDS011;777;47.156;8.326;2023-02-13T15:19:13;32.00;;;28.17;;
1567;SDS011;777;47.156;8.326;2023-02-13T15:21:46;34.10;;;29.23;;
1567;SDS011;777;47.156;8.326;2023-02-13T15:24:16;34.15;;;29.45;;
1567;SDS011;777;47.156;8.326;2023-02-13T15:26:48;35.20;;;31.02;;
1567;SDS011;777;47.156;8.326;2023-02-13T15:29:19;35.45;;;28.70;;
1567;SDS011;777;47.156;8.326;2023-02-13T15:31:46;35.17;;;29.67;;
1567;SDS011;777;47.156;8.326;2023-02-13T15:34:20;35.10;;;28.15;;
1567;SDS011;777;47.156;8.326;2023-02-13T15:36:51;36.88;;;30.80;;
1567;SDS011;777;47.156;8.326;2023-02-13T15:39:19;38.80;;;31.83;;
1567;SDS011;777;47.156;8.326;2023-02-13T15:41:50;41.40;;;33.88;;
1567;SDS011;777;47.156;8.326;2023-02-13T15:44:19;37.33;;;32.25;;
1567;SDS011;777;47.156;8.326;2023-02-13T15:46:49;47.70;;;36.08;;
1567;SDS011;777;47.156;8.326;2023-02-13T15:49:19;50.65;;;39.65;;
1567;SDS011;777;47.156;8.326;2023-02-13T15:51:47;51.72;;;39.47;;
1567;SDS011;777;47.156;8.326;2023-02-13T15:54:24;56.03;;;42.38;;
1567;SDS011;777;47.156;8.326;2023-02-13T15:56:53;57.50;;;42.40;;
1567;SDS011;777;47.156;8.326;2023-02-13T15:59:23;63.75;;;44.45;;
1567;SDS011;777;47.156;8.326;2023-02-13T16:01:51;58.72;;;42.78;;
1567;SDS011;777;47.156;8.326;2023-02-13T16:04:19;61.53;;;43.42;;
1567;SDS011;777;47.156;8.326;2023-02-13T16:06:46;59.42;;;42.78;;
1567;SDS011;777;47.156;8.326;2023-02-13T16:09:21;61.22;;;43.67;;